sensor_id;sensor_type;location;lat;lon;timestamp;temperature;humidity
3208;DHT22;1616;52.394;9.756;2022-08-21T00:00:50;18.20;1.00
3208;DHT22;1616;52.394;9.756;2022-08-21T00:03:15;18.30;1.00
3208;DHT22;1616;52.394;9.756;2022-08-21T00:05:45;18.30;1.00
3208;DHT22;1616;52.394;9.756;2022-08-21T00:08:12;18.20;1.00
3208;DHT22;1616;52.394;9.756;2022-08-21T00:10:42;18.20;1.00
3208;DHT22;1616;52.394;9.756;2022-08-21T00:13:09;18.10;1.00
3208;DHT22;1616;52.394;9.756;2022-08-21T00:15:36;18.00;1.00
3208;DHT22;1616;52.394;9.756;2022-08-21T00:18:03;18.00;1.00
3208;DHT22;1616;52.394;9.756;2022-08-21T00:20:30;18.00;1.00
3208;DHT22;1616;52.394;9.756;2022-08-21T00:22:56;18.00;1.00
3208;DHT22;1616;52.394;9.756;2022-08-21T00:25:22;18.00;1.00
3208;DHT22;1616;52.394;9.756;2022-08-21T00:27:48;17.90;1.00
3208;DHT22;1616;52.394;9.756;2022-08-21T00:30:15;18.00;1.00
3208;DHT22;1616;52.394;9.756;2022-08-21T00:32:42;17.90;1.00
3208;DHT22;1616;52.394;9.756;2022-08-21T00:35:12;18.00;1.00
3208;DHT22;1616;52.394;9.756;2022-08-21T00:37:40;17.80;1.00
3208;DHT22;1616;52.394;9.756;2022-08-21T00:40:08;17.90;1.00
3208;DHT22;1616;52.394;9.756;2022-08-21T00:42:34;17.80;1.00
3208;DHT22;1616;52.394;9.756;2022-08-21T00:45:00;17.80;1.00
3208;DHT22;1616;52.394;9.756;2022-08-21T00:47:26;17.80;1.00
3208;DHT22;1616;52.394;9.756;2022-08-21T00:49:52;17.70;1.00
3208;DHT22;1616;52.394;9.756;2022-08-21T00:52:22;17.60;1.00
3208;DHT22;1616;52.394;9.756;2022-08-21T00:54:49;17.60;1.00
3208;DHT22;1616;52.394;9.756;2022-08-21T00:57:19;17.50;1.00
3208;DHT22;1616;52.394;9.756;2022-08-21T00:59:48;17.60;1.00
3208;DHT22;1616;52.394;9.756;2022-08-21T01:02:15;17.60;1.00
3208;DHT22;1616;52.394;9.756;2022-08-21T01:04:42;17.60;1.00
3208;DHT22;1616;52.394;9.756;2022-08-21T01:07:08;17.70;1.00
3208;DHT22;1616;52.394;9.756;2022-08-21T01:09:34;17.70;1.00
3208;DHT22;1616;52.394;9.756;2022-08-21T01:12:00;17.80;1.00
3208;DHT22;1616;52.394;9.756;2022-08-21T01:14:26;17.80;1.00
3208;DHT22;1616;52.394;9.756;2022-08-21T01:16:52;17.80;1.00
3208;DHT22;1616;52.394;9.756;2022-08-21T01:19:20;17.70;1.00
3208;DHT22;1616;52.394;9.756;2022-08-21T01:21:47;17.70;1.00
3208;DHT22;1616;52.394;9.756;2022-08-21T01:24:13;17.60;1.00
3208;DHT22;1616;52.394;9.756;2022-08-21T01:26:39;17.50;1.00
3208;DHT22;1616;52.394;9.756;2022-08-21T01:29:16;17.50;1.00
3208;DHT22;1616;52.394;9.756;2022-08-21T01:31:45;17.50;1.00
3208;DHT22;1616;52.394;9.756;2022-08-21T01:34:11;17.40;1.00
3208;DHT22;1616;52.394;9.756;2022-08-21T01:36:37;17.50;1.00
3208;DHT22;1616;52.394;9.756;2022-08-21T01:39:04;17.50;1.00
3208;DHT22;1616;52.394;9.756;2022-08-21T01:41:30;17.40;1.00
3208;DHT22;1616;52.394;9.756;2022-08-21T01:43:56;17.40;1.00
3208;DHT22;1616;52.394;9.756;2022-08-21T01:46:21;17.40;1.00
3208;DHT22;1616;52.394;9.756;2022-08-21T01:48:47;17.30;1.00
3208;DHT22;1616;52.394;9.756;2022-08-21T01:51:13;17.30;1.00
3208;DHT22;1616;52.394;9.756;2022-08-21T01:53:39;17.30;1.00
3208;DHT22;1616;52.394;9.756;2022-08-21T01:56:08;17.30;1.00
3208;DHT22;1616;52.394;9.756;2022-08-21T01:58:34;17.20;1.00
3208;DHT22;1616;52.394;9.756;2022-08-21T02:01:01;17.20;1.00
3208;DHT22;1616;52.394;9.756;2022-08-21T02:03:28;17.20;1.00
3208;DHT22;1616;52.394;9.756;2022-08-21T02:05:55;17.20;1.00
3208;DHT22;1616;52.394;9.756;2022-08-21T02:08:21;17.20;1.00
3208;DHT22;1616;52.394;9.756;2022-08-21T02:10:51;17.20;1.00
3208;DHT22;1616;52.394;9.756;2022-08-21T02:13:18;17.20;1.00
3208;DHT22;1616;52.394;9.756;2022-08-21T02:15:44;17.10;1.00
3208;DHT22;1616;52.394;9.756;2022-08-21T02:18:10;17.10;1.00
3208;DHT22;1616;52.394;9.756;2022-08-21T02:20:40;17.10;1.00
3208;DHT22;1616;52.394;9.756;2022-08-21T02:23:07;17.10;1.00
3208;DHT22;1616;52.394;9.756;2022-08-21T02:25:33;17.10;1.00
3208;DHT22;1616;52.394;9.756;2022-08-21T02:28:03;17.00;1.00
3208;DHT22;1616;52.394;9.756;2022-08-21T02:30:33;17.00;1.00
3208;DHT22;1616;52.394;9.756;2022-08-21T02:32:59;17.00;1.00
3208;DHT22;1616;52.394;9.756;2022-08-21T02:35:26;17.00;1.00
3208;DHT22;1616;52.394;9.756;2022-08-21T02:37:57;17.00;1.00
3208;DHT22;1616;52.394;9.756;2022-08-21T02:40:26;17.10;1.00
3208;DHT22;1616;52.394;9.756;2022-08-21T02:42:52;17.10;1.00
3208;DHT22;1616;52.394;9.756;2022-08-21T02:45:18;17.10;1.00
3208;DHT22;1616;52.394;9.756;2022-08-21T02:47:50;17.00;1.00
3208;DHT22;1616;52.394;9.756;2022-08-21T02:50:26;16.90;1.00
3208;DHT22;1616;52.394;9.756;2022-08-21T02:52:52;16.80;1.00
3208;DHT22;1616;52.394;9.756;2022-08-21T02:55:24;16.80;1.00
3208;DHT22;1616;52.394;9.756;2022-08-21T02:57:51;16.70;1.00
3208;DHT22;1616;52.394;9.756;2022-08-21T03:00:17;16.60;1.00
3208;DHT22;1616;52.394;9.756;2022-08-21T03:02:43;16.50;1.00
3208;DHT22;1616;52.394;9.756;2022-08-21T03:05:13;16.60;1.00
3208;DHT22;1616;52.394;9.756;2022-08-21T03:07:40;16.70;1.00
3208;DHT22;1616;52.394;9.756;2022-08-21T03:10:06;16.60;1.00
3208;DHT22;1616;52.394;9.756;2022-08-21T03:12:33;16.70;1.00
3208;DHT22;1616;52.394;9.756;2022-08-21T03:15:05;16.60;1.00
3208;DHT22;1616;52.394;9.756;2022-08-21T03:17:32;16.70;1.00
3208;DHT22;1616;52.394;9.756;2022-08-21T03:19:58;16.70;1.00
3208;DHT22;1616;52.394;9.756;2022-08-21T03:22:24;16.70;1.00
3208;DHT22;1616;52.394;9.756;2022-08-21T03:24:50;16.60;1.00
3208;DHT22;1616;52.394;9.756;2022-08-21T03:27:16;16.60;1.00
3208;DHT22;1616;52.394;9.756;2022-08-21T03:29:42;16.60;1.00
3208;DHT22;1616;52.394;9.756;2022-08-21T03:32:07;16.60;1.00
3208;DHT22;1616;52.394;9.756;2022-08-21T03:34:36;16.50;1.00
3208;DHT22;1616;52.394;9.756;2022-08-21T03:37:03;16.40;1.00
3208;DHT22;1616;52.394;9.756;2022-08-21T03:39:29;16.30;1.00
3208;DHT22;1616;52.394;9.756;2022-08-21T03:41:55;16.30;1.00
3208;DHT22;1616;52.394;9.756;2022-08-21T03:44:20;16.30;1.00
3208;DHT22;1616;52.394;9.756;2022-08-21T03:46:46;16.30;1.00
3208;DHT22;1616;52.394;9.756;2022-08-21T03:49:12;16.30;1.00
3208;DHT22;1616;52.394;9.756;2022-08-21T03:51:37;16.30;1.00
3208;DHT22;1616;52.394;9.756;2022-08-21T03:54:03;16.30;1.00
3208;DHT22;1616;52.394;9.756;2022-08-21T03:56:29;16.40;1.00
3208;DHT22;1616;52.394;9.756;2022-08-21T03:58:55;16.40;1.00
3208;DHT22;1616;52.394;9.756;2022-08-21T04:01:21;16.50;1.00
3208;DHT22;1616;52.394;9.756;2022-08-21T04:03:47;16.60;1.00
3208;DHT22;1616;52.394;9.756;2022-08-21T04:06:13;16.60;1.00
3208;DHT22;1616;52.394;9.756;2022-08-21T04:08:39;16.70;1.00
3208;DHT22;1616;52.394;9.756;2022-08-21T04:11:07;16.70;1.00
3208;DHT22;1616;52.394;9.756;2022-08-21T04:13:35;16.80;1.00
3208;DHT22;1616;52.394;9.756;2022-08-21T04:16:01;16.90;1.00
3208;DHT22;1616;52.394;9.756;2022-08-21T04:18:27;16.90;1.00
3208;DHT22;1616;52.394;9.756;2022-08-21T04:20:53;17.00;1.00
3208;DHT22;1616;52.394;9.756;2022-08-21T04:23:21;17.10;1.00
3208;DHT22;1616;52.394;9.756;2022-08-21T04:25:47;17.00;1.00
3208;DHT22;1616;52.394;9.756;2022-08-21T04:28:13;17.20;1.00
3208;DHT22;1616;52.394;9.756;2022-08-21T04:30:40;17.20;1.00
3208;DHT22;1616;52.394;9.756;2022-08-21T04:33:05;17.20;1.00
3208;DHT22;1616;52.394;9.756;2022-08-21T04:35:31;17.30;1.00
3208;DHT22;1616;52.394;9.756;2022-08-21T04:37:57;17.20;1.00
3208;DHT22;1616;52.394;9.756;2022-08-21T04:40:26;17.20;1.00
3208;DHT22;1616;52.394;9.756;2022-08-21T04:42:55;17.20;1.00
3208;DHT22;1616;52.394;9.756;2022-08-21T04:45:31;17.20;1.00
3208;DHT22;1616;52.394;9.756;2022-08-21T04:47:59;17.30;1.00
3208;DHT22;1616;52.394;9.756;2022-08-21T04:50:39;17.30;1.00
3208;DHT22;1616;52.394;9.756;2022-08-21T04:53:12;17.20;1.00
3208;DHT22;1616;52.394;9.756;2022-08-21T04:55:39;17.30;1.00
3208;DHT22;1616;52.394;9.756;2022-08-21T04:58:09;17.30;1.00
3208;DHT22;1616;52.394;9.756;2022-08-21T05:00:36;17.40;1.00
3208;DHT22;1616;52.394;9.756;2022-08-21T05:03:05;17.50;1.00
3208;DHT22;1616;52.394;9.756;2022-08-21T05:05:31;17.40;1.00
3208;DHT22;1616;52.394;9.756;2022-08-21T05:07:59;17.60;1.00
3208;DHT22;1616;52.394;9.756;2022-08-21T05:10:26;17.60;1.00
3208;DHT22;1616;52.394;9.756;2022-08-21T05:12:53;17.70;1.00
3208;DHT22;1616;52.394;9.756;2022-08-21T05:15:20;17.70;1.00
3208;DHT22;1616;52.394;9.756;2022-08-21T05:17:47;17.80;1.00
3208;DHT22;1616;52.394;9.756;2022-08-21T05:20:13;17.80;1.00
3208;DHT22;1616;52.394;9.756;2022-08-21T05:22:40;17.90;1.00
3208;DHT22;1616;52.394;9.756;2022-08-21T05:25:07;17.80;1.00
3208;DHT22;1616;52.394;9.756;2022-08-21T05:27:33;17.90;1.00
3208;DHT22;1616;52.394;9.756;2022-08-21T05:29:59;18.00;1.00
3208;DHT22;1616;52.394;9.756;2022-08-21T05:32:25;17.90;1.00
3208;DHT22;1616;52.394;9.756;2022-08-21T05:34:53;17.90;1.00
3208;DHT22;1616;52.394;9.756;2022-08-21T05:37:19;17.90;1.00
3208;DHT22;1616;52.394;9.756;2022-08-21T05:39:44;18.00;1.00
3208;DHT22;1616;52.394;9.756;2022-08-21T05:42:11;18.10;1.00
3208;DHT22;1616;52.394;9.756;2022-08-21T05:44:37;18.20;1.00
3208;DHT22;1616;52.394;9.756;2022-08-21T05:47:04;18.40;1.00
3208;DHT22;1616;52.394;9.756;2022-08-21T05:49:30;18.40;1.00
3208;DHT22;1616;52.394;9.756;2022-08-21T05:51:56;18.60;1.00
3208;DHT22;1616;52.394;9.756;2022-08-21T05:54:21;18.80;1.00
3208;DHT22;1616;52.394;9.756;2022-08-21T05:56:47;18.90;1.00
3208;DHT22;1616;52.394;9.756;2022-08-21T05:59:12;19.00;1.00
3208;DHT22;1616;52.394;9.756;2022-08-21T06:01:39;19.10;1.00
3208;DHT22;1616;52.394;9.756;2022-08-21T06:04:06;19.30;1.00
3208;DHT22;1616;52.394;9.756;2022-08-21T06:06:33;19.40;1.00
3208;DHT22;1616;52.394;9.756;2022-08-21T06:08:59;19.60;1.00
3208;DHT22;1616;52.394;9.756;2022-08-21T06:11:24;19.60;1.00
3208;DHT22;1616;52.394;9.756;2022-08-21T06:13:50;19.70;1.00
3208;DHT22;1616;52.394;9.756;2022-08-21T06:16:16;19.50;1.00
3208;DHT22;1616;52.394;9.756;2022-08-21T06:18:44;19.70;1.00
3208;DHT22;1616;52.394;9.756;2022-08-21T06:21:10;19.80;1.00
3208;DHT22;1616;52.394;9.756;2022-08-21T06:23:37;20.00;1.00
3208;DHT22;1616;52.394;9.756;2022-08-21T06:26:04;20.00;1.00
3208;DHT22;1616;52.394;9.756;2022-08-21T06:28:31;20.10;1.00
3208;DHT22;1616;52.394;9.756;2022-08-21T06:30:57;20.20;1.00
3208;DHT22;1616;52.394;9.756;2022-08-21T06:33:22;20.20;1.00
3208;DHT22;1616;52.394;9.756;2022-08-21T06:35:49;20.20;1.00
3208;DHT22;1616;52.394;9.756;2022-08-21T06:38:15;20.40;1.00
3208;DHT22;1616;52.394;9.756;2022-08-21T06:40:41;20.50;1.00
3208;DHT22;1616;52.394;9.756;2022-08-21T06:43:09;20.70;1.00
3208;DHT22;1616;52.394;9.756;2022-08-21T06:45:35;20.90;1.00
3208;DHT22;1616;52.394;9.756;2022-08-21T06:48:01;21.20;1.00
3208;DHT22;1616;52.394;9.756;2022-08-21T06:50:27;22.00;1.00
3208;DHT22;1616;52.394;9.756;2022-08-21T06:53:09;23.00;1.00
3208;DHT22;1616;52.394;9.756;2022-08-21T06:55:35;24.20;1.00
3208;DHT22;1616;52.394;9.756;2022-08-21T06:58:03;25.30;1.00
3208;DHT22;1616;52.394;9.756;2022-08-21T07:00:29;26.10;1.00
3208;DHT22;1616;52.394;9.756;2022-08-21T07:02:55;26.80;1.00
3208;DHT22;1616;52.394;9.756;2022-08-21T07:05:21;27.70;1.00
3208;DHT22;1616;52.394;9.756;2022-08-21T07:07:46;28.70;1.00
3208;DHT22;1616;52.394;9.756;2022-08-21T07:10:14;29.50;1.00
3208;DHT22;1616;52.394;9.756;2022-08-21T07:12:39;30.30;1.00
3208;DHT22;1616;52.394;9.756;2022-08-21T07:15:06;30.90;1.00
3208;DHT22;1616;52.394;9.756;2022-08-21T07:17:32;31.50;1.00
3208;DHT22;1616;52.394;9.756;2022-08-21T07:19:57;31.90;1.00
3208;DHT22;1616;52.394;9.756;2022-08-21T07:22:23;32.40;1.00
3208;DHT22;1616;52.394;9.756;2022-08-21T07:24:49;32.80;1.00
3208;DHT22;1616;52.394;9.756;2022-08-21T07:27:15;33.10;1.00
3208;DHT22;1616;52.394;9.756;2022-08-21T07:29:41;33.40;1.00
3208;DHT22;1616;52.394;9.756;2022-08-21T07:32:07;33.60;1.00
3208;DHT22;1616;52.394;9.756;2022-08-21T07:34:32;33.80;1.00
3208;DHT22;1616;52.394;9.756;2022-08-21T07:36:58;34.10;1.00
3208;DHT22;1616;52.394;9.756;2022-08-21T07:39:24;34.40;1.00
3208;DHT22;1616;52.394;9.756;2022-08-21T07:41:50;34.60;1.00
3208;DHT22;1616;52.394;9.756;2022-08-21T07:44:16;34.90;1.00
3208;DHT22;1616;52.394;9.756;2022-08-21T07:46:42;35.20;1.00
3208;DHT22;1616;52.394;9.756;2022-08-21T07:49:07;35.40;1.00
3208;DHT22;1616;52.394;9.756;2022-08-21T07:51:33;35.60;1.00
3208;DHT22;1616;52.394;9.756;2022-08-21T07:53:59;35.70;1.00
3208;DHT22;1616;52.394;9.756;2022-08-21T07:56:26;35.90;1.00
3208;DHT22;1616;52.394;9.756;2022-08-21T07:58:52;36.10;1.00
3208;DHT22;1616;52.394;9.756;2022-08-21T08:01:19;36.20;1.00
3208;DHT22;1616;52.394;9.756;2022-08-21T08:03:45;36.40;1.00
3208;DHT22;1616;52.394;9.756;2022-08-21T08:06:11;36.50;1.00
3208;DHT22;1616;52.394;9.756;2022-08-21T08:08:41;36.60;1.00
3208;DHT22;1616;52.394;9.756;2022-08-21T08:11:09;36.70;1.00
3208;DHT22;1616;52.394;9.756;2022-08-21T08:13:45;36.90;1.00
3208;DHT22;1616;52.394;9.756;2022-08-21T08:16:11;36.80;1.00
3208;DHT22;1616;52.394;9.756;2022-08-21T08:18:37;37.10;1.00
3208;DHT22;1616;52.394;9.756;2022-08-21T08:21:04;37.10;1.00
3208;DHT22;1616;52.394;9.756;2022-08-21T08:23:31;37.10;1.00
3208;DHT22;1616;52.394;9.756;2022-08-21T08:25:58;37.10;1.00
3208;DHT22;1616;52.394;9.756;2022-08-21T08:28:25;37.30;1.00
3208;DHT22;1616;52.394;9.756;2022-08-21T08:30:50;37.40;1.00
3208;DHT22;1616;52.394;9.756;2022-08-21T08:33:18;37.60;1.00
3208;DHT22;1616;52.394;9.756;2022-08-21T08:35:47;37.80;1.00
3208;DHT22;1616;52.394;9.756;2022-08-21T08:38:14;38.00;1.00
3208;DHT22;1616;52.394;9.756;2022-08-21T08:40:52;38.20;1.00
3208;DHT22;1616;52.394;9.756;2022-08-21T08:43:20;38.50;1.00
3208;DHT22;1616;52.394;9.756;2022-08-21T08:45:49;38.60;1.00
3208;DHT22;1616;52.394;9.756;2022-08-21T08:48:39;38.60;1.00
3208;DHT22;1616;52.394;9.756;2022-08-21T08:51:12;38.70;1.00
3208;DHT22;1616;52.394;9.756;2022-08-21T08:53:52;38.70;1.00
3208;DHT22;1616;52.394;9.756;2022-08-21T08:56:25;38.60;1.00
3208;DHT22;1616;52.394;9.756;2022-08-21T08:58:52;38.50;1.00
3208;DHT22;1616;52.394;9.756;2022-08-21T09:01:19;38.30;1.00
3208;DHT22;1616;52.394;9.756;2022-08-21T09:03:46;38.10;1.00
3208;DHT22;1616;52.394;9.756;2022-08-21T09:08:59;37.90;1.00
3208;DHT22;1616;52.394;9.756;2022-08-21T09:11:38;38.10;1.00
3208;DHT22;1616;52.394;9.756;2022-08-21T09:19:29;38.50;1.00
3208;DHT22;1616;52.394;9.756;2022-08-21T09:27:20;38.60;1.00
3208;DHT22;1616;52.394;9.756;2022-08-21T09:29:52;38.60;1.00
3208;DHT22;1616;52.394;9.756;2022-08-21T09:32:28;38.60;1.00
3208;DHT22;1616;52.394;9.756;2022-08-21T09:34:57;38.80;1.00
3208;DHT22;1616;52.394;9.756;2022-08-21T09:37:23;39.10;1.00
3208;DHT22;1616;52.394;9.756;2022-08-21T09:39:49;39.40;1.00
3208;DHT22;1616;52.394;9.756;2022-08-21T09:42:23;39.50;1.00
3208;DHT22;1616;52.394;9.756;2022-08-21T09:45:06;39.60;1.00
3208;DHT22;1616;52.394;9.756;2022-08-21T09:47:33;39.50;1.00
3208;DHT22;1616;52.394;9.756;2022-08-21T09:50:09;39.40;1.00
3208;DHT22;1616;52.394;9.756;2022-08-21T09:52:43;39.20;1.00
3208;DHT22;1616;52.394;9.756;2022-08-21T09:55:20;39.10;1.00
3208;DHT22;1616;52.394;9.756;2022-08-21T09:58:07;39.30;1.00
3208;DHT22;1616;52.394;9.756;2022-08-21T10:00:34;39.80;1.00
3208;DHT22;1616;52.394;9.756;2022-08-21T10:03:20;40.20;1.00
3208;DHT22;1616;52.394;9.756;2022-08-21T10:05:53;40.30;1.00
3208;DHT22;1616;52.394;9.756;2022-08-21T10:08:21;40.40;1.00
3208;DHT22;1616;52.394;9.756;2022-08-21T10:11:09;40.30;1.00
3208;DHT22;1616;52.394;9.756;2022-08-21T10:13:51;40.30;1.00
3208;DHT22;1616;52.394;9.756;2022-08-21T10:16:41;40.60;1.00
3208;DHT22;1616;52.394;9.756;2022-08-21T10:21:58;41.40;1.00
3208;DHT22;1616;52.394;9.756;2022-08-21T10:24:32;41.60;1.00
3208;DHT22;1616;52.394;9.756;2022-08-21T10:29:41;42.00;1.00
3208;DHT22;1616;52.394;9.756;2022-08-21T10:32:22;42.10;1.00
3208;DHT22;1616;52.394;9.756;2022-08-21T10:35:22;42.00;1.00
3208;DHT22;1616;52.394;9.756;2022-08-21T10:40:57;42.10;1.00
3208;DHT22;1616;52.394;9.756;2022-08-21T10:51:40;40.00;1.00
3208;DHT22;1616;52.394;9.756;2022-08-21T10:54:20;40.10;1.00
3208;DHT22;1616;52.394;9.756;2022-08-21T10:56:49;40.30;1.00
3208;DHT22;1616;52.394;9.756;2022-08-21T10:59:42;40.30;1.00
3208;DHT22;1616;52.394;9.756;2022-08-21T11:07:18;40.80;1.00
3208;DHT22;1616;52.394;9.756;2022-08-21T11:09:47;41.00;1.00
3208;DHT22;1616;52.394;9.756;2022-08-21T11:13:26;41.10;1.00
3208;DHT22;1616;52.394;9.756;2022-08-21T11:20:47;41.50;1.00
3208;DHT22;1616;52.394;9.756;2022-08-21T11:23:22;41.80;1.00
3208;DHT22;1616;52.394;9.756;2022-08-21T11:25:53;42.10;1.00
3208;DHT22;1616;52.394;9.756;2022-08-21T11:34:02;42.70;1.00
3208;DHT22;1616;52.394;9.756;2022-08-21T11:36:36;42.50;1.00
3208;DHT22;1616;52.394;9.756;2022-08-21T11:40:03;42.50;1.00
3208;DHT22;1616;52.394;9.756;2022-08-21T11:42:19;42.50;1.00
3208;DHT22;1616;52.394;9.756;2022-08-21T11:50:27;41.50;1.00
3208;DHT22;1616;52.394;9.756;2022-08-21T11:53:12;40.10;1.00
3208;DHT22;1616;52.394;9.756;2022-08-21T11:55:48;38.50;1.00
3208;DHT22;1616;52.394;9.756;2022-08-21T11:58:39;37.10;1.00
3208;DHT22;1616;52.394;9.756;2022-08-21T12:01:11;36.20;1.00
3208;DHT22;1616;52.394;9.756;2022-08-21T12:03:41;36.40;1.00
3208;DHT22;1616;52.394;9.756;2022-08-21T12:06:13;37.00;1.00
3208;DHT22;1616;52.394;9.756;2022-08-21T12:08:45;37.60;1.00
3208;DHT22;1616;52.394;9.756;2022-08-21T12:16:33;36.60;1.00
3208;DHT22;1616;52.394;9.756;2022-08-21T12:21:32;35.10;1.00
3208;DHT22;1616;52.394;9.756;2022-08-21T12:29:16;35.70;1.00
3208;DHT22;1616;52.394;9.756;2022-08-21T12:31:57;36.40;1.00
3208;DHT22;1616;52.394;9.756;2022-08-21T12:34:29;37.20;1.00
3208;DHT22;1616;52.394;9.756;2022-08-21T12:37:00;37.80;1.00
3208;DHT22;1616;52.394;9.756;2022-08-21T12:39:29;37.50;1.00
3208;DHT22;1616;52.394;9.756;2022-08-21T12:42:04;37.30;1.00
3208;DHT22;1616;52.394;9.756;2022-08-21T12:44:44;37.30;1.00
3208;DHT22;1616;52.394;9.756;2022-08-21T12:47:27;37.60;1.00
3208;DHT22;1616;52.394;9.756;2022-08-21T12:50:58;37.90;1.00
3208;DHT22;1616;52.394;9.756;2022-08-21T12:53:12;38.00;1.00
3208;DHT22;1616;52.394;9.756;2022-08-21T12:55:42;37.30;1.00
3208;DHT22;1616;52.394;9.756;2022-08-21T12:58:20;36.90;1.00
3208;DHT22;1616;52.394;9.756;2022-08-21T13:01:06;36.70;1.00
3208;DHT22;1616;52.394;9.756;2022-08-21T13:03:35;36.70;1.00
3208;DHT22;1616;52.394;9.756;2022-08-21T13:06:03;36.80;1.00
3208;DHT22;1616;52.394;9.756;2022-08-21T13:08:30;36.90;1.00
3208;DHT22;1616;52.394;9.756;2022-08-21T13:11:05;36.70;1.00
3208;DHT22;1616;52.394;9.756;2022-08-21T13:13:33;36.50;1.00
3208;DHT22;1616;52.394;9.756;2022-08-21T13:16:02;36.30;1.00
3208;DHT22;1616;52.394;9.756;2022-08-21T13:18:30;36.20;1.00
3208;DHT22;1616;52.394;9.756;2022-08-21T13:21:16;36.00;1.00
3208;DHT22;1616;52.394;9.756;2022-08-21T13:23:41;35.40;1.00
3208;DHT22;1616;52.394;9.756;2022-08-21T13:26:19;34.90;1.00
3208;DHT22;1616;52.394;9.756;2022-08-21T13:28:46;34.40;1.00
3208;DHT22;1616;52.394;9.756;2022-08-21T13:31:24;34.20;1.00
3208;DHT22;1616;52.394;9.756;2022-08-21T13:33:53;33.90;1.00
3208;DHT22;1616;52.394;9.756;2022-08-21T13:36:25;33.80;1.00
3208;DHT22;1616;52.394;9.756;2022-08-21T13:38:53;33.70;1.00
3208;DHT22;1616;52.394;9.756;2022-08-21T13:41:24;33.70;1.00
3208;DHT22;1616;52.394;9.756;2022-08-21T13:43:58;33.50;1.00
3208;DHT22;1616;52.394;9.756;2022-08-21T13:46:28;33.20;1.00
3208;DHT22;1616;52.394;9.756;2022-08-21T13:48:54;32.80;1.00
3208;DHT22;1616;52.394;9.756;2022-08-21T13:51:21;32.50;1.00
3208;DHT22;1616;52.394;9.756;2022-08-21T13:53:50;32.10;1.00
3208;DHT22;1616;52.394;9.756;2022-08-21T13:56:30;31.90;1.00
3208;DHT22;1616;52.394;9.756;2022-08-21T13:58:57;31.80;1.00
3208;DHT22;1616;52.394;9.756;2022-08-21T14:01:33;31.70;1.00
3208;DHT22;1616;52.394;9.756;2022-08-21T14:04:16;31.60;1.00
3208;DHT22;1616;52.394;9.756;2022-08-21T14:06:44;31.60;1.00
3208;DHT22;1616;52.394;9.756;2022-08-21T14:09:13;31.50;1.00
3208;DHT22;1616;52.394;9.756;2022-08-21T14:11:41;31.40;1.00
3208;DHT22;1616;52.394;9.756;2022-08-21T14:14:20;31.30;1.00
3208;DHT22;1616;52.394;9.756;2022-08-21T14:17:01;31.30;1.00
3208;DHT22;1616;52.394;9.756;2022-08-21T14:19:43;31.10;1.00
3208;DHT22;1616;52.394;9.756;2022-08-21T14:27:29;31.10;1.00
3208;DHT22;1616;52.394;9.756;2022-08-21T14:30:03;31.20;1.00
3208;DHT22;1616;52.394;9.756;2022-08-21T14:32:38;31.10;1.00
3208;DHT22;1616;52.394;9.756;2022-08-21T14:35:05;31.00;1.00
3208;DHT22;1616;52.394;9.756;2022-08-21T14:37:31;30.90;1.00
3208;DHT22;1616;52.394;9.756;2022-08-21T14:39:57;30.70;1.00
3208;DHT22;1616;52.394;9.756;2022-08-21T14:42:23;30.50;1.00
3208;DHT22;1616;52.394;9.756;2022-08-21T14:44:50;30.20;1.00
3208;DHT22;1616;52.394;9.756;2022-08-21T14:47:15;30.00;1.00
3208;DHT22;1616;52.394;9.756;2022-08-21T14:49:41;29.90;1.00
3208;DHT22;1616;52.394;9.756;2022-08-21T14:52:07;29.80;1.00
3208;DHT22;1616;52.394;9.756;2022-08-21T14:54:33;29.80;1.00
3208;DHT22;1616;52.394;9.756;2022-08-21T14:57:06;29.70;1.00
3208;DHT22;1616;52.394;9.756;2022-08-21T14:59:34;29.60;1.00
3208;DHT22;1616;52.394;9.756;2022-08-21T15:02:01;29.70;1.00
3208;DHT22;1616;52.394;9.756;2022-08-21T15:04:28;29.70;1.00
3208;DHT22;1616;52.394;9.756;2022-08-21T15:06:54;29.70;1.00
3208;DHT22;1616;52.394;9.756;2022-08-21T15:09:21;29.60;1.00
3208;DHT22;1616;52.394;9.756;2022-08-21T15:11:47;29.50;1.00
3208;DHT22;1616;52.394;9.756;2022-08-21T15:14:26;29.50;1.00
3208;DHT22;1616;52.394;9.756;2022-08-21T15:16:52;29.40;1.00
3208;DHT22;1616;52.394;9.756;2022-08-21T15:19:18;29.30;1.00
3208;DHT22;1616;52.394;9.756;2022-08-21T15:21:44;29.30;1.00
3208;DHT22;1616;52.394;9.756;2022-08-21T15:24:10;29.30;1.00
3208;DHT22;1616;52.394;9.756;2022-08-21T15:26:36;29.30;1.00
3208;DHT22;1616;52.394;9.756;2022-08-21T15:29:03;29.30;1.00
3208;DHT22;1616;52.394;9.756;2022-08-21T15:31:29;29.30;1.00
3208;DHT22;1616;52.394;9.756;2022-08-21T15:33:55;29.30;1.00
3208;DHT22;1616;52.394;9.756;2022-08-21T15:36:21;29.40;1.00
3208;DHT22;1616;52.394;9.756;2022-08-21T15:38:46;29.30;1.00
3208;DHT22;1616;52.394;9.756;2022-08-21T15:41:13;29.30;1.00
3208;DHT22;1616;52.394;9.756;2022-08-21T15:43:50;29.20;1.00
3208;DHT22;1616;52.394;9.756;2022-08-21T15:46:18;29.20;1.00
3208;DHT22;1616;52.394;9.756;2022-08-21T15:48:44;29.10;1.00
3208;DHT22;1616;52.394;9.756;2022-08-21T15:51:12;29.10;1.00
3208;DHT22;1616;52.394;9.756;2022-08-21T15:53:38;29.10;1.00
3208;DHT22;1616;52.394;9.756;2022-08-21T15:56:07;29.20;1.00
3208;DHT22;1616;52.394;9.756;2022-08-21T15:58:36;29.10;1.00
3208;DHT22;1616;52.394;9.756;2022-08-21T16:01:02;29.20;1.00
3208;DHT22;1616;52.394;9.756;2022-08-21T16:03:28;29.10;1.00
3208;DHT22;1616;52.394;9.756;2022-08-21T16:05:54;29.10;1.00
3208;DHT22;1616;52.394;9.756;2022-08-21T16:08:22;29.00;1.00
3208;DHT22;1616;52.394;9.756;2022-08-21T16:10:49;28.90;1.00
3208;DHT22;1616;52.394;9.756;2022-08-21T16:13:27;28.90;1.00
3208;DHT22;1616;52.394;9.756;2022-08-21T16:15:53;28.70;1.00
3208;DHT22;1616;52.394;9.756;2022-08-21T16:18:20;28.60;1.00
3208;DHT22;1616;52.394;9.756;2022-08-21T16:20:47;28.40;1.00
3208;DHT22;1616;52.394;9.756;2022-08-21T16:23:15;28.20;1.00
3208;DHT22;1616;52.394;9.756;2022-08-21T16:25:41;28.10;1.00
3208;DHT22;1616;52.394;9.756;2022-08-21T16:28:08;28.00;1.00
3208;DHT22;1616;52.394;9.756;2022-08-21T16:30:35;27.90;1.00
3208;DHT22;1616;52.394;9.756;2022-08-21T16:33:03;27.90;1.00
3208;DHT22;1616;52.394;9.756;2022-08-21T16:35:29;27.80;1.00
3208;DHT22;1616;52.394;9.756;2022-08-21T16:37:56;27.80;1.00
3208;DHT22;1616;52.394;9.756;2022-08-21T16:40:22;27.70;1.00
3208;DHT22;1616;52.394;9.756;2022-08-21T16:42:48;27.90;1.00
3208;DHT22;1616;52.394;9.756;2022-08-21T16:45:17;27.80;1.00
3208;DHT22;1616;52.394;9.756;2022-08-21T16:47:44;27.80;1.00
3208;DHT22;1616;52.394;9.756;2022-08-21T16:50:14;27.80;1.00
3208;DHT22;1616;52.394;9.756;2022-08-21T16:52:40;27.80;1.00
3208;DHT22;1616;52.394;9.756;2022-08-21T16:55:06;27.70;1.00
3208;DHT22;1616;52.394;9.756;2022-08-21T16:57:32;27.80;1.00
3208;DHT22;1616;52.394;9.756;2022-08-21T16:59:58;27.80;1.00
3208;DHT22;1616;52.394;9.756;2022-08-21T17:02:31;27.80;1.00
3208;DHT22;1616;52.394;9.756;2022-08-21T17:04:57;27.80;1.00
3208;DHT22;1616;52.394;9.756;2022-08-21T17:07:23;27.70;1.00
3208;DHT22;1616;52.394;9.756;2022-08-21T17:09:49;27.60;1.00
3208;DHT22;1616;52.394;9.756;2022-08-21T17:12:16;27.50;1.00
3208;DHT22;1616;52.394;9.756;2022-08-21T17:14:42;27.50;1.00
3208;DHT22;1616;52.394;9.756;2022-08-21T17:17:09;27.40;1.00
3208;DHT22;1616;52.394;9.756;2022-08-21T17:19:36;27.40;1.00
3208;DHT22;1616;52.394;9.756;2022-08-21T17:22:02;27.30;1.00
3208;DHT22;1616;52.394;9.756;2022-08-21T17:24:28;27.30;1.00
3208;DHT22;1616;52.394;9.756;2022-08-21T17:26:54;27.10;1.00
3208;DHT22;1616;52.394;9.756;2022-08-21T17:29:29;27.00;1.00
3208;DHT22;1616;52.394;9.756;2022-08-21T17:31:56;26.70;1.00
3208;DHT22;1616;52.394;9.756;2022-08-21T17:34:22;26.60;1.00
3208;DHT22;1616;52.394;9.756;2022-08-21T17:36:48;26.40;1.00
3208;DHT22;1616;52.394;9.756;2022-08-21T17:39:14;26.20;1.00